Glen Cove, New York
Current Conditions -  °F | °C
As of 10:51 AM on Friday 24 Oct 2014 (Local Time) from KLGA Reporting Station
Broken Clouds Broken Clouds  
Wind Chill: 56°   Ceiling: 14000
Heat Index: 56°   Visibility: 10mi
Dew Point: 43°   Wind: 13mph
Humidity: 62%   Direction: 330°NNW
Pressure: 29.81"   Gusts: NA
Location:  40.86°N, 73.63°W
Report Text: KLGA 241451Z 33011KT 10SM SCT030 BKN140 BKN250 13/06 A2981 RMK AO2 SLP096 T01330061 50002
Loading
Personal Weather Stations






























Interactive Weather Map New forecast layout! Learn more

10-Day Weather Forecast

Advertisements
Track Severe Weather on mobile